Terminal Aerodrome Forecast
Issued by NWS

Home | Current Version | Previous Version | Text Only | Print | Product List | Glossary On
Versions: 1 2 3 4 5 6 7 8 9 10 11 12 13 14 15 16 17 18 19 20 21 22 23 24 25 26 27 28 29 30 31 32 33
764
FTUS43 KDLH 230201 AAA
TAFBRD
TAF AMD
KBRD 230201Z 2302/2324 15011KT P6SM BKN250
     FM230900 17010KT P6SM VCSH BKN050
     FM231300 19013G23KT P6SM VCSH OVC035
     FM231800 21008KT P6SM BKN100 PROB30 2320/2324 5SM -TSRA
      BKN050CB=

USA.gov is the U.S. government's official web portal to all federal, state and local government web resources and services.